Main page
METAR-TAF:

METAR-TAF

Airports :

Marshall County Airport

Lacon, Illinois, United States

latitude: 41-01-09N, longitude: 089-23-11W, elevation: 567 ft

Current weather observation

The report was made 18 minutes ago, at 16:35 UTC
Wind 7 mph from the South/Southwest
Temperature 73°F
Humidity 83%
Pressure 29.86 in. Hg
Visibility: 10 miles
Scattered clouds at a height of 1600 ft
Scattered clouds at a height of 2400 ft
Broken clouds at a height of 2900 ft

METAR: KC75 281635Z AUTO 21006KT 10SM SCT016 SCT024 BKN029 23/20 A2986 RMK AO2 T02290197

Time: 11:53 (16:53 UTC)


TAF: missing

Weather observations and forecasts of more than 4000 airports (METAR and TAF reports).

The available stations are represented by yellow and red dots on the map.

Hover mouse over dot to see the name of the station.

Then click to see weather observations and forecasts.

To change the map : click on the green buttons with a black cross to zoom in, on the green button with a dash to zoom out, or on the green arrows for adjacent maps.


METAR-TAF: